Weather at Bordeaux-Mérignac Airport

Public forecast

Using degrees Celsius for public forecast. Weather courtesy of forecast.io.

Current aviation weather report (METAR) for Bordeaux-Mérignac Airport

Report is more than 6 hours old.

2022/11/14 15:30 (retrieved 2 years ago)

LFBD 141530Z AUTO 25005KT 9999 SCT033 BKN066 BKN150 15/10 Q1015 NOSIG

Aviation forecast (TAF) for Bordeaux-Mérignac Airport

Forecast is more than 12 hours old.

2023/02/22 19:22 Ammendment (retrieved 1 year ago)

TAF AMD LFBD 221915Z 2219/2324 24005KT 9999 SCT015 BKN030 TX11/2219Z TN06/2307Z BECMG 2220/2222 34010KT TEMPO 2219/2224 4000 -RA BKN005 OVC015 TEMPO 2300/2315 2000 RA OVC005 TEMPO 2315/2318 3000 SHRA BKN008 FEW014CB BKN015TCU BECMG 2319/2321 VRB03KT